Time;durP1;ratioP1;P1;durP2;ratioP2;P2;SDS_P1;SDS_P2;PMS_P1;PMS_P2;Temp;Humidity;BMP_temperature;BMP_pressure;BME280_temperature;BME280_humidity;BME280_pressure;Samples;Min_cycle;Max_cycle;Signal;HPM_P1;HPM_P2
2024/01/06 00:01:18;;;;;;;11.77;9.85;;;;;;;;;;5264003;28;20117;-78
2024/01/06 00:03:50;;;;;;;9.50;8.60;;;;;;;;;;5263812;28;20013;-78
2024/01/06 00:06:21;;;;;;;10.02;9.05;;;;;;;;;;5262789;28;20535;-79
2024/01/06 00:08:54;;;;;;;10.32;9.32;;;;;;;;;;5264178;28;20107;-77
2024/01/06 00:11:25;;;;;;;10.05;9.05;;;;;;;;;;5263342;28;20029;-78
2024/01/06 00:13:57;;;;;;;9.45;8.55;;;;;;;;;;5263123;28;20491;-78
2024/01/06 00:16:28;;;;;;;9.38;8.43;;;;;;;;;;5263644;28;20418;-78
2024/01/06 00:19:00;;;;;;;10.57;9.48;;;;;;;;;;5263716;28;20115;-78
2024/01/06 00:21:31;;;;;;;10.73;9.00;;;;;;;;;;5263202;28;20091;-78
2024/01/06 00:24:03;;;;;;;11.40;9.43;;;;;;;;;;5263781;28;20021;-78
2024/01/06 00:26:34;;;;;;;12.35;10.57;;;;;;;;;;5263763;28;20017;-78
2024/01/06 00:29:05;;;;;;;10.43;9.32;;;;;;;;;;5263454;28;20089;-78
2024/01/06 00:31:36;;;;;;;11.60;10.13;;;;;;;;;;5263880;28;20068;-78
2024/01/06 00:34:07;;;;;;;11.38;10.18;;;;;;;;;;5263904;28;20028;-77
2024/01/06 00:36:39;;;;;;;11.00;9.82;;;;;;;;;;5263581;28;20116;-78
2024/01/06 00:39:10;;;;;;;11.96;10.62;;;;;;;;;;5264362;28;20045;-78
2024/01/06 00:41:41;;;;;;;11.82;10.63;;;;;;;;;;5268023;28;20037;-79
2024/01/06 00:44:12;;;;;;;12.80;11.52;;;;;;;;;;5269223;28;20021;-80
2024/01/06 00:46:43;;;;;;;12.32;11.00;;;;;;;;;;5265639;28;20025;-79
2024/01/06 00:49:14;;;;;;;13.23;11.40;;;;;;;;;;5263220;28;20109;-79
2024/01/06 00:51:46;;;;;;;13.80;11.68;;;;;;;;;;5263048;28;20044;-79
2024/01/06 00:54:17;;;;;;;15.57;13.38;;;;;;;;;;5262930;28;20013;-80
2024/01/06 00:56:48;;;;;;;15.23;12.93;;;;;;;;;;5262225;28;20383;-79
2024/01/06 00:59:19;;;;;;;16.58;14.10;;;;;;;;;;5262967;28;20049;-79
2024/01/06 01:01:51;;;;;;;13.60;11.05;;;;;;;;;;5262395;28;20033;-80
2024/01/06 01:04:22;;;;;;;15.57;12.63;;;;;;;;;;5262342;28;20025;-80
2024/01/06 01:06:53;;;;;;;14.35;10.60;;;;;;;;;;5262876;28;20575;-79
2024/01/06 01:09:24;;;;;;;13.60;11.93;;;;;;;;;;5260492;28;20384;-80
2024/01/06 01:11:55;;;;;;;14.35;12.02;;;;;;;;;;5262937;28;20170;-79
2024/01/06 01:14:26;;;;;;;14.35;10.68;;;;;;;;;;5261862;28;20036;-80
2024/01/06 01:16:58;;;;;;;13.80;11.80;;;;;;;;;;5261194;28;20037;-80
2024/01/06 01:19:29;;;;;;;13.80;12.23;;;;;;;;;;5261661;28;20096;-80
2024/01/06 01:22:00;;;;;;;14.15;11.77;;;;;;;;;;5261652;28;20032;-80
2024/01/06 01:24:31;;;;;;;14.75;11.90;;;;;;;;;;5260820;28;20535;-80
2024/01/06 01:27:02;;;;;;;15.08;11.98;;;;;;;;;;5261614;28;20036;-80
2024/01/06 01:29:34;;;;;;;13.93;12.00;;;;;;;;;;5261295;28;20020;-80
2024/01/06 01:32:05;;;;;;;15.27;12.45;;;;;;;;;;5260670;28;20033;-79
2024/01/06 01:34:36;;;;;;;15.70;12.38;;;;;;;;;;5261660;28;20513;-79
2024/01/06 01:37:07;;;;;;;14.18;11.77;;;;;;;;;;5260809;28;20067;-79
2024/01/06 01:39:38;;;;;;;13.20;11.77;;;;;;;;;;5261286;28;20025;-79
2024/01/06 01:42:10;;;;;;;13.48;11.70;;;;;;;;;;5261219;28;20031;-80
2024/01/06 01:44:41;;;;;;;13.52;11.60;;;;;;;;;;5260332;28;20029;-77
2024/01/06 01:47:12;;;;;;;12.88;11.52;;;;;;;;;;5261151;28;20041;-79
2024/01/06 01:49:45;;;;;;;11.60;10.40;;;;;;;;;;5261289;28;20024;-79
2024/01/06 01:52:16;;;;;;;13.57;11.35;;;;;;;;;;5260265;28;20079;-78
2024/01/06 01:54:48;;;;;;;12.52;10.90;;;;;;;;;;5260831;28;20127;-79
2024/01/06 01:57:20;;;;;;;11.77;10.10;;;;;;;;;;5261098;28;20483;-78
2024/01/06 01:59:52;;;;;;;12.52;10.77;;;;;;;;;;5260361;28;20017;-78
2024/01/06 02:02:23;;;;;;;13.20;11.45;;;;;;;;;;5260657;28;20032;-78
2024/01/06 02:04:55;;;;;;;12.52;10.73;;;;;;;;;;5260975;28;20032;-78
2024/01/06 02:07:26;;;;;;;12.45;10.63;;;;;;;;;;5259726;28;20503;-79
2024/01/06 02:09:58;;;;;;;13.00;10.52;;;;;;;;;;5260711;28;20127;-79
2024/01/06 02:12:29;;;;;;;10.95;9.82;;;;;;;;;;5259651;28;20461;-79
2024/01/06 02:15:00;;;;;;;11.85;9.73;;;;;;;;;;5260741;28;20045;-79
2024/01/06 02:17:31;;;;;;;9.90;8.85;;;;;;;;;;5260493;28;20067;-79
2024/01/06 02:20:03;;;;;;;11.00;9.38;;;;;;;;;;5259225;28;20067;-79
2024/01/06 02:22:38;;;;;;;9.43;8.52;;;;;;;;;;5260399;28;20057;-80
2024/01/06 02:25:12;;;;;;;9.05;8.15;;;;;;;;;;5260328;28;20461;-78
2024/01/06 02:27:43;;;;;;;8.70;7.90;;;;;;;;;;5259189;28;20013;-78
2024/01/06 02:30:14;;;;;;;9.57;7.88;;;;;;;;;;5259788;28;20045;-78
2024/01/06 02:32:45;;;;;;;7.57;6.88;;;;;;;;;;5260079;28;20534;-79
2024/01/06 02:35:17;;;;;;;8.25;7.15;;;;;;;;;;5259416;28;20055;-81
2024/01/06 02:37:48;;;;;;;6.78;6.13;;;;;;;;;;5260210;28;20016;-79
2024/01/06 02:40:19;;;;;;;6.53;5.93;;;;;;;;;;5259092;28;20036;-78
2024/01/06 02:42:50;;;;;;;5.82;5.32;;;;;;;;;;5260165;28;20028;-79
2024/01/06 02:45:21;;;;;;;5.88;5.38;;;;;;;;;;5259542;28;20362;-79
2024/01/06 02:47:52;;;;;;;4.90;4.50;;;;;;;;;;5259593;28;20028;-80
2024/01/06 02:50:24;;;;;;;5.32;4.82;;;;;;;;;;5259692;28;20067;-80
2024/01/06 02:52:55;;;;;;;5.30;4.80;;;;;;;;;;5260084;28;20021;-80
2024/01/06 02:55:26;;;;;;;6.00;5.43;;;;;;;;;;5258398;28;20024;-80
2024/01/06 02:57:57;;;;;;;5.35;4.85;;;;;;;;;;5259584;28;20449;-80
2024/01/06 03:00:28;;;;;;;6.10;5.60;;;;;;;;;;5259677;28;20428;-80
2024/01/06 03:02:59;;;;;;;6.25;5.65;;;;;;;;;;5259009;28;20021;-79
2024/01/06 03:05:31;;;;;;;6.22;5.63;;;;;;;;;;5259584;28;20116;-80
2024/01/06 03:08:02;;;;;;;8.00;6.32;;;;;;;;;;5259861;28;20103;-81
2024/01/06 03:10:34;;;;;;;6.05;5.45;;;;;;;;;;5258710;28;20117;-80
2024/01/06 03:13:05;;;;;;;6.32;5.72;;;;;;;;;;5259450;28;20582;-79
2024/01/06 03:15:36;;;;;;;6.45;5.43;;;;;;;;;;5258647;28;20071;-79
2024/01/06 03:18:08;;;;;;;6.20;5.63;;;;;;;;;;5259573;28;20021;-80
2024/01/06 03:20:39;;;;;;;6.47;5.88;;;;;;;;;;5259388;28;20047;-80
2024/01/06 03:23:11;;;;;;;4.90;4.43;;;;;;;;;;5258841;28;20368;-80
2024/01/06 03:25:42;;;;;;;5.13;4.63;;;;;;;;;;5259742;28;20032;-80
2024/01/06 03:28:13;;;;;;;5.66;4.94;;;;;;;;;;5259546;28;20045;-80
2024/01/06 03:30:44;;;;;;;5.32;4.82;;;;;;;;;;5258754;28;20048;-80
2024/01/06 03:33:16;;;;;;;6.15;5.45;;;;;;;;;;5261121;28;20031;-80
2024/01/06 03:35:47;;;;;;;7.28;5.25;;;;;;;;;;5263406;28;20032;-80
2024/01/06 03:38:18;;;;;;;5.70;5.20;;;;;;;;;;5262742;28;20429;-80
2024/01/06 03:40:49;;;;;;;7.07;4.80;;;;;;;;;;5263248;28;20021;-80
2024/01/06 03:43:20;;;;;;;5.00;4.50;;;;;;;;;;5262831;28;20017;-81
2024/01/06 03:45:51;;;;;;;5.72;4.78;;;;;;;;;;5262826;28;20031;-80
2024/01/06 03:48:22;;;;;;;5.28;4.78;;;;;;;;;;5263094;28;20460;-81
2024/01/06 03:50:54;;;;;;;4.93;4.43;;;;;;;;;;5262882;28;20029;-81
2024/01/06 03:53:25;;;;;;;4.30;3.90;;;;;;;;;;5262875;28;20104;-81
2024/01/06 03:55:56;;;;;;;4.55;4.10;;;;;;;;;;5263219;28;20037;-81
2024/01/06 03:58:27;;;;;;;4.68;4.25;;;;;;;;;;5262579;28;20109;-80
2024/01/06 04:00:58;;;;;;;4.60;4.05;;;;;;;;;;5263103;28;20083;-81
2024/01/06 04:03:30;;;;;;;3.70;3.40;;;;;;;;;;5262847;28;20013;-81
2024/01/06 04:06:01;;;;;;;4.10;3.75;;;;;;;;;;5262133;28;20036;-81
2024/01/06 04:08:32;;;;;;;3.55;3.25;;;;;;;;;;5262986;28;20020;-81
2024/01/06 04:11:03;;;;;;;3.40;3.10;;;;;;;;;;5261384;28;20021;-80
2024/01/06 04:13:34;;;;;;;3.20;2.88;;;;;;;;;;5262124;28;20017;-80
2024/01/06 04:16:06;;;;;;;4.10;3.70;;;;;;;;;;5262432;28;20040;-81
2024/01/06 04:18:37;;;;;;;4.68;4.28;;;;;;;;;;5262898;28;20017;-81
2024/01/06 04:21:08;;;;;;;4.72;4.15;;;;;;;;;;5262039;28;20024;-80
2024/01/06 04:23:39;;;;;;;4.60;4.20;;;;;;;;;;5262511;28;20040;-81
2024/01/06 04:26:11;;;;;;;4.32;3.92;;;;;;;;;;5261913;28;20028;-81
2024/01/06 04:28:42;;;;;;;4.40;3.97;;;;;;;;;;5263569;28;20020;-79
2024/01/06 04:31:13;;;;;;;4.60;4.20;;;;;;;;;;5263168;28;20057;-80
2024/01/06 04:33:44;;;;;;;4.13;3.83;;;;;;;;;;5262527;28;20021;-79
2024/01/06 04:36:15;;;;;;;5.40;3.97;;;;;;;;;;5261442;28;20337;-79
2024/01/06 04:38:47;;;;;;;4.30;4.00;;;;;;;;;;5262231;28;20037;-81
2024/01/06 04:41:18;;;;;;;5.15;4.28;;;;;;;;;;5261216;28;20121;-81
2024/01/06 04:43:49;;;;;;;4.18;3.65;;;;;;;;;;5261751;28;20020;-78
2024/01/06 04:46:20;;;;;;;4.05;3.65;;;;;;;;;;5262045;28;20021;-79
2024/01/06 04:48:51;;;;;;;4.93;4.20;;;;;;;;;;5261168;28;20075;-81
2024/01/06 04:51:23;;;;;;;3.75;3.45;;;;;;;;;;5261758;28;20036;-81
2024/01/06 04:53:54;;;;;;;4.05;3.67;;;;;;;;;;5261712;28;20013;-82
2024/01/06 04:56:25;;;;;;;3.53;3.22;;;;;;;;;;5261774;28;20033;-78
2024/01/06 04:58:57;;;;;;;3.55;3.25;;;;;;;;;;5261929;28;20029;-81
2024/01/06 05:01:28;;;;;;;3.90;3.03;;;;;;;;;;5261175;28;20059;-80
2024/01/06 05:03:59;;;;;;;3.20;2.28;;;;;;;;;;5261741;28;20013;-80
2024/01/06 05:06:31;;;;;;;2.50;2.30;;;;;;;;;;5262111;28;20124;-80
2024/01/06 05:09:02;;;;;;;1.75;1.33;;;;;;;;;;5262384;28;20112;-80
2024/01/06 05:11:33;;;;;;;2.45;1.10;;;;;;;;;;5262755;28;20017;-80
2024/01/06 05:14:04;;;;;;;1.75;1.33;;;;;;;;;;5262646;28;20025;-80
2024/01/06 05:16:35;;;;;;;2.17;1.23;;;;;;;;;;5261626;28;20052;-80
2024/01/06 05:19:07;;;;;;;1.85;0.90;;;;;;;;;;5262673;28;20029;-80
2024/01/06 05:21:39;;;;;;;2.58;1.00;;;;;;;;;;5261798;28;20163;-79
2024/01/06 05:24:11;;;;;;;1.67;0.80;;;;;;;;;;5260869;28;20435;-81
2024/01/06 05:26:42;;;;;;;1.40;0.88;;;;;;;;;;5261236;28;20017;-80
2024/01/06 05:29:13;;;;;;;1.80;0.82;;;;;;;;;;5260507;28;20533;-80
2024/01/06 05:31:47;;;;;;;1.70;0.82;;;;;;;;;;5261296;28;20045;-79
2024/01/06 05:34:18;;;;;;;2.35;1.00;;;;;;;;;;5261879;28;20032;-79
2024/01/06 05:36:49;;;;;;;1.70;1.00;;;;;;;;;;5261202;28;20476;-81
2024/01/06 05:39:20;;;;;;;1.60;1.00;;;;;;;;;;5261914;28;20099;-79
2024/01/06 05:41:51;;;;;;;1.63;1.02;;;;;;;;;;5261472;28;20485;-79
2024/01/06 05:44:22;;;;;;;1.80;0.98;;;;;;;;;;5260418;28;20459;-80
2024/01/06 05:46:54;;;;;;;1.90;0.80;;;;;;;;;;5261376;28;20440;-83
2024/01/06 05:49:25;;;;;;;1.63;0.80;;;;;;;;;;5260707;28;20025;-80
2024/01/06 05:51:56;;;;;;;1.60;0.80;;;;;;;;;;5260300;28;20017;-79
2024/01/06 05:54:27;;;;;;;1.63;0.90;;;;;;;;;;5261224;28;20112;-79
2024/01/06 05:56:59;;;;;;;2.00;1.46;;;;;;;;;;5260515;28;20021;-80
2024/01/06 05:59:32;;;;;;;2.22;1.30;;;;;;;;;;5260858;28;20020;-80
2024/01/06 06:02:03;;;;;;;1.90;1.35;;;;;;;;;;5261194;28;20494;-80
2024/01/06 06:04:35;;;;;;;2.05;1.35;;;;;;;;;;5260404;28;20103;-80
2024/01/06 06:07:06;;;;;;;2.33;1.67;;;;;;;;;;5261262;28;20013;-80
2024/01/06 06:09:39;;;;;;;2.30;2.00;;;;;;;;;;5261270;28;20021;-80
2024/01/06 06:12:10;;;;;;;1.90;1.33;;;;;;;;;;5260214;28;20009;-80
2024/01/06 06:14:42;;;;;;;2.03;1.30;;;;;;;;;;5260936;28;20531;-80
2024/01/06 06:17:13;;;;;;;1.95;1.25;;;;;;;;;;5260971;28;20112;-80
2024/01/06 06:19:44;;;;;;;2.03;1.10;;;;;;;;;;5260059;28;20017;-80
2024/01/06 06:22:15;;;;;;;1.52;0.82;;;;;;;;;;5260724;28;20484;-80
2024/01/06 06:24:46;;;;;;;1.63;1.30;;;;;;;;;;5260573;28;20353;-80
2024/01/06 06:27:18;;;;;;;2.15;1.25;;;;;;;;;;5259539;28;20484;-79
2024/01/06 06:29:49;;;;;;;2.22;1.80;;;;;;;;;;5260320;28;20013;-80
2024/01/06 06:32:20;;;;;;;2.60;1.80;;;;;;;;;;5259807;28;20056;-80
2024/01/06 06:34:52;;;;;;;2.83;2.00;;;;;;;;;;5260497;28;20043;-80
2024/01/06 06:37:23;;;;;;;3.03;2.17;;;;;;;;;;5259782;28;20047;-81
2024/01/06 06:39:55;;;;;;;2.55;1.92;;;;;;;;;;5259685;28;20427;-80
2024/01/06 06:42:26;;;;;;;3.13;2.35;;;;;;;;;;5260005;28;20063;-80
2024/01/06 06:44:57;;;;;;;2.42;2.10;;;;;;;;;;5260612;28;20349;-79
2024/01/06 06:47:28;;;;;;;2.50;2.30;;;;;;;;;;5260203;28;20024;-79
2024/01/06 06:50:00;;;;;;;2.72;2.22;;;;;;;;;;5260901;28;20017;-80
2024/01/06 06:52:31;;;;;;;2.50;2.03;;;;;;;;;;5260860;28;20028;-80
2024/01/06 06:55:02;;;;;;;2.92;2.25;;;;;;;;;;5260387;28;20091;-80
2024/01/06 06:57:33;;;;;;;2.33;1.85;;;;;;;;;;5260775;28;20075;-80
2024/01/06 07:00:07;;;;;;;2.53;1.88;;;;;;;;;;5260957;28;20021;-82
2024/01/06 07:02:38;;;;;;;3.75;2.67;;;;;;;;;;5260116;28;20013;-80
2024/01/06 07:05:09;;;;;;;3.10;2.25;;;;;;;;;;5260884;28;20029;-81
2024/01/06 07:07:40;;;;;;;3.50;2.40;;;;;;;;;;5262548;28;20021;-80
2024/01/06 07:10:12;;;;;;;2.30;2.10;;;;;;;;;;5265077;28;20533;-80
2024/01/06 07:12:43;;;;;;;3.10;2.78;;;;;;;;;;5265022;28;20140;-81
2024/01/06 07:15:14;;;;;;;2.65;2.13;;;;;;;;;;5264203;28;20061;-83
2024/01/06 07:17:46;;;;;;;3.38;2.85;;;;;;;;;;5264606;28;20029;-82
2024/01/06 07:20:17;;;;;;;2.95;2.65;;;;;;;;;;5264808;28;20025;-83
2024/01/06 07:22:48;;;;;;;3.78;2.25;;;;;;;;;;5263404;28;20043;-80
2024/01/06 07:25:20;;;;;;;3.30;2.50;;;;;;;;;;5264705;28;20021;-80
2024/01/06 07:27:51;;;;;;;3.58;2.95;;;;;;;;;;5264574;28;20472;-81
2024/01/06 07:30:22;;;;;;;3.33;2.80;;;;;;;;;;5255640;28;20546;-80
2024/01/06 07:32:53;;;;;;;4.10;3.45;;;;;;;;;;5264653;28;20025;-78
2024/01/06 07:35:24;;;;;;;3.85;2.88;;;;;;;;;;5263055;28;20033;-79
2024/01/06 07:37:56;;;;;;;4.05;3.60;;;;;;;;;;5262936;28;20032;-79
2024/01/06 07:40:27;;;;;;;6.07;3.58;;;;;;;;;;5263198;28;20124;-78
2024/01/06 07:42:58;;;;;;;4.72;3.42;;;;;;;;;;5261364;28;20025;-78
2024/01/06 07:45:29;;;;;;;5.90;3.97;;;;;;;;;;5263899;28;20394;-78
2024/01/06 07:48:01;;;;;;;4.43;3.75;;;;;;;;;;5263977;28;20112;-78
2024/01/06 07:50:32;;;;;;;4.93;3.65;;;;;;;;;;5263504;28;20021;-79
2024/01/06 07:53:03;;;;;;;4.63;4.20;;;;;;;;;;5264260;28;20449;-80
2024/01/06 07:55:34;;;;;;;5.00;4.47;;;;;;;;;;5264262;28;20534;-79
2024/01/06 07:58:06;;;;;;;5.55;4.78;;;;;;;;;;5263192;28;20029;-82
2024/01/06 08:00:37;;;;;;;6.45;5.10;;;;;;;;;;5264018;28;20032;-82
2024/01/06 08:03:08;;;;;;;4.68;3.92;;;;;;;;;;5263983;28;20043;-82
2024/01/06 08:05:39;;;;;;;4.80;4.00;;;;;;;;;;5265893;28;20499;-80
2024/01/06 08:08:12;;;;;;;4.32;3.40;;;;;;;;;;5269156;28;20025;-80
2024/01/06 08:10:44;;;;;;;5.57;4.53;;;;;;;;;;5269831;28;20084;-81
2024/01/06 08:13:15;;;;;;;6.82;4.47;;;;;;;;;;5265676;28;20532;-82
2024/01/06 08:15:46;;;;;;;5.18;3.95;;;;;;;;;;5264081;28;20040;-82
2024/01/06 08:18:18;;;;;;;6.32;4.07;;;;;;;;;;5262351;28;20013;-80
2024/01/06 08:20:49;;;;;;;4.35;3.85;;;;;;;;;;5263765;28;20013;-81
2024/01/06 08:23:20;;;;;;;4.93;3.65;;;;;;;;;;5263621;28;20017;-82
2024/01/06 08:25:51;;;;;;;5.07;3.65;;;;;;;;;;5262884;28;20021;-81
2024/01/06 08:28:23;;;;;;;6.53;4.07;;;;;;;;;;5263119;28;20464;-81
2024/01/06 08:30:54;;;;;;;5.22;4.20;;;;;;;;;;5263517;28;20049;-81
2024/01/06 08:33:25;;;;;;;6.03;4.57;;;;;;;;;;5262749;28;20025;-82
2024/01/06 08:35:56;;;;;;;5.53;4.45;;;;;;;;;;5263517;28;20086;-82
2024/01/06 08:38:27;;;;;;;5.13;4.30;;;;;;;;;;5263290;28;20024;-82
2024/01/06 08:40:59;;;;;;;6.50;4.68;;;;;;;;;;5262204;28;20031;-81
2024/01/06 08:43:30;;;;;;;4.80;4.35;;;;;;;;;;5263159;28;20029;-81
2024/01/06 08:46:02;;;;;;;8.48;5.20;;;;;;;;;;5262434;28;20551;-81
2024/01/06 08:48:33;;;;;;;5.30;4.75;;;;;;;;;;5263024;28;20013;-82
2024/01/06 08:51:04;;;;;;;4.82;4.10;;;;;;;;;;5262992;28;20025;-80
2024/01/06 08:53:35;;;;;;;5.47;4.63;;;;;;;;;;5262476;28;20068;-80
2024/01/06 08:56:07;;;;;;;6.85;4.53;;;;;;;;;;5262470;28;20033;-82
2024/01/06 08:58:38;;;;;;;5.82;4.97;;;;;;;;;;5262703;28;20487;-80
2024/01/06 09:01:09;;;;;;;5.18;4.30;;;;;;;;;;5262100;28;20029;-79
2024/01/06 09:03:40;;;;;;;6.15;4.53;;;;;;;;;;5262552;28;20108;-80
2024/01/06 09:06:12;;;;;;;5.45;4.38;;;;;;;;;;5262853;28;20021;-78
2024/01/06 09:08:43;;;;;;;6.32;4.68;;;;;;;;;;5262121;28;20024;-78
2024/01/06 09:11:14;;;;;;;6.57;4.40;;;;;;;;;;5262469;28;20043;-80
2024/01/06 09:13:45;;;;;;;4.55;4.15;;;;;;;;;;5262382;28;20025;-81
2024/01/06 09:16:16;;;;;;;6.40;4.60;;;;;;;;;;5261406;28;20080;-83
2024/01/06 09:18:48;;;;;;;4.57;4.18;;;;;;;;;;5262524;28;20025;-79
2024/01/06 09:21:19;;;;;;;4.45;3.40;;;;;;;;;;5261630;28;20017;-75
2024/01/06 09:23:50;;;;;;;4.70;4.18;;;;;;;;;;5261958;28;20020;-78
2024/01/06 09:26:22;;;;;;;6.05;4.18;;;;;;;;;;5261808;28;20021;-80
2024/01/06 09:28:53;;;;;;;6.88;4.50;;;;;;;;;;5261606;28;20021;-78
2024/01/06 09:31:24;;;;;;;4.70;4.28;;;;;;;;;;5260667;28;20037;-84
2024/01/06 09:33:56;;;;;;;4.75;4.32;;;;;;;;;;5262773;28;20452;-84
2024/01/06 09:36:27;;;;;;;7.05;4.20;;;;;;;;;;5261410;28;20032;-82
2024/01/06 09:38:58;;;;;;;5.07;3.88;;;;;;;;;;5262254;28;20452;-83
2024/01/06 09:41:30;;;;;;;4.75;4.28;;;;;;;;;;5262088;28;20380;-82
2024/01/06 09:44:01;;;;;;;6.05;4.93;;;;;;;;;;5261667;28;20047;-82
2024/01/06 09:46:33;;;;;;;4.57;4.03;;;;;;;;;;5262013;28;20024;-82
2024/01/06 09:49:06;;;;;;;5.07;4.22;;;;;;;;;;5262007;28;20017;-82
2024/01/06 09:51:50;;;;;;;4.97;4.25;;;;;;;;;;5364413;27;20437;-83
2024/01/06 09:54:22;;;;;;;5.72;4.38;;;;;;;;;;5364119;27;20019;-83
2024/01/06 09:56:55;;;;;;;4.43;3.95;;;;;;;;;;5363888;27;20050;-81
2024/01/06 09:59:27;;;;;;;4.53;3.67;;;;;;;;;;5364070;27;20004;-81
2024/01/06 10:01:58;;;;;;;3.42;3.13;;;;;;;;;;5371649;27;20021;-82
2024/01/06 10:04:29;;;;;;;4.47;4.00;;;;;;;;;;5368373;27;20042;-82
2024/01/06 10:07:00;;;;;;;4.95;3.40;;;;;;;;;;5364008;27;20026;-82
2024/01/06 10:09:31;;;;;;;4.75;3.70;;;;;;;;;;5364010;27;20023;-82
2024/01/06 10:12:03;;;;;;;4.43;3.67;;;;;;;;;;5363547;27;20031;-82
2024/01/06 10:14:34;;;;;;;4.07;3.20;;;;;;;;;;5363885;27;20060;-82
2024/01/06 10:17:06;;;;;;;5.38;3.40;;;;;;;;;;5363749;27;20105;-82
2024/01/06 10:19:38;;;;;;;5.30;3.92;;;;;;;;;;5362745;27;20457;-82
2024/01/06 10:22:09;;;;;;;4.53;3.80;;;;;;;;;;5363773;27;20019;-82
2024/01/06 10:24:40;;;;;;;3.60;3.17;;;;;;;;;;5362905;27;20050;-82
2024/01/06 10:27:12;;;;;;;6.95;3.42;;;;;;;;;;5363517;27;20026;-82
2024/01/06 10:29:44;;;;;;;4.20;3.40;;;;;;;;;;5363671;27;20382;-82
2024/01/06 10:32:16;;;;;;;4.68;3.55;;;;;;;;;;5362829;27;20381;-82
2024/01/06 10:34:48;;;;;;;4.65;3.53;;;;;;;;;;5363574;27;20482;-82
2024/01/06 10:37:19;;;;;;;5.57;3.92;;;;;;;;;;5363244;27;20034;-82
2024/01/06 10:40:09;;;;;;;4.28;3.85;;;;;;;;;;5362944;27;20015;-83
2024/01/06 10:42:41;;;;;;;4.72;3.63;;;;;;;;;;5363592;27;20639;-83
2024/01/06 10:45:13;;;;;;;4.30;3.00;;;;;;;;;;5363313;27;20105;-83
2024/01/06 10:47:44;;;;;;;3.80;3.33;;;;;;;;;;5362362;27;20015;-82
2024/01/06 10:50:17;;;;;;;6.25;4.05;;;;;;;;;;5363077;27;20133;-82
2024/01/06 10:52:48;;;;;;;4.43;4.00;;;;;;;;;;5362756;27;20373;-82
2024/01/06 10:55:20;;;;;;;4.75;3.40;;;;;;;;;;5363212;27;20019;-82
2024/01/06 10:57:52;;;;;;;5.13;3.70;;;;;;;;;;5363311;27;20102;-82
2024/01/06 11:00:24;;;;;;;5.25;3.63;;;;;;;;;;5361963;27;20631;-83
2024/01/06 11:02:55;;;;;;;7.25;3.80;;;;;;;;;;5350214;27;20523;-82
2024/01/06 11:05:27;;;;;;;5.13;3.30;;;;;;;;;;5348495;27;20057;-82
2024/01/06 11:08:00;;;;;;;4.57;3.20;;;;;;;;;;5348198;27;20168;-82
2024/01/06 11:10:32;;;;;;;5.55;3.25;;;;;;;;;;5348656;27;20424;-82
2024/01/06 11:13:11;;;;;;;4.88;3.13;;;;;;;;;;5348724;27;20027;-82
2024/01/06 11:15:52;;;;;;;3.90;3.20;;;;;;;;;;5347763;27;20037;-82
2024/01/06 11:18:30;;;;;;;5.88;3.28;;;;;;;;;;5348089;27;20022;-82
2024/01/06 11:21:13;;;;;;;5.45;2.90;;;;;;;;;;5347604;27;20492;-82
2024/01/06 11:23:45;;;;;;;4.90;3.45;;;;;;;;;;5348748;27;20083;-83
2024/01/06 11:26:16;;;;;;;3.92;3.00;;;;;;;;;;5348202;27;20011;-82
2024/01/06 11:28:47;;;;;;;4.85;2.55;;;;;;;;;;5347576;27;20023;-83
2024/01/06 11:31:18;;;;;;;3.38;2.45;;;;;;;;;;5347810;27;20030;-83
2024/01/06 11:33:50;;;;;;;2.83;2.35;;;;;;;;;;5348017;27;20042;-82
2024/01/06 11:36:22;;;;;;;4.00;2.28;;;;;;;;;;5347194;27;20454;-83
2024/01/06 11:38:53;;;;;;;2.70;2.13;;;;;;;;;;5349255;27;20019;-81
2024/01/06 11:41:43;;;;;;;5.72;2.70;;;;;;;;;;5348294;27;20014;-81
2024/01/06 11:44:18;;;;;;;3.58;2.88;;;;;;;;;;5348189;27;20027;-81
2024/01/06 11:46:49;;;;;;;3.72;2.58;;;;;;;;;;5348085;27;20347;-81
2024/01/06 11:49:21;;;;;;;3.55;2.63;;;;;;;;;;5346929;27;20035;-82
2024/01/06 11:51:52;;;;;;;5.22;2.60;;;;;;;;;;5349713;27;20031;-82
2024/01/06 11:54:24;;;;;;;5.05;2.30;;;;;;;;;;5355428;27;20015;-83
2024/01/06 11:56:57;;;;;;;4.20;2.50;;;;;;;;;;5348686;27;20100;-82
2024/01/06 11:59:28;;;;;;;3.30;2.60;;;;;;;;;;5348039;27;20015;-82
2024/01/06 12:01:59;;;;;;;2.95;1.88;;;;;;;;;;5347941;27;20060;-82
2024/01/06 12:04:31;;;;;;;4.35;2.20;;;;;;;;;;5346805;27;20015;-82
2024/01/06 12:07:09;;;;;;;3.13;2.30;;;;;;;;;;5347446;27;20106;-83
2024/01/06 12:09:40;;;;;;;3.70;2.33;;;;;;;;;;5347388;27;20210;-81
2024/01/06 12:12:13;;;;;;;3.15;2.30;;;;;;;;;;5346679;27;20019;-82
2024/01/06 12:14:47;;;;;;;4.80;2.47;;;;;;;;;;5346112;27;20027;-83
2024/01/06 12:17:20;;;;;;;2.78;1.67;;;;;;;;;;5346361;27;20031;-83
2024/01/06 12:19:51;;;;;;;3.85;2.10;;;;;;;;;;5347376;27;20454;-82
2024/01/06 12:22:22;;;;;;;2.78;2.00;;;;;;;;;;5347016;27;20037;-82
2024/01/06 12:24:54;;;;;;;4.45;2.00;;;;;;;;;;5346641;27;20034;-81
2024/01/06 12:27:25;;;;;;;4.50;1.90;;;;;;;;;;5346691;27;20555;-81
2024/01/06 12:29:57;;;;;;;4.13;1.90;;;;;;;;;;5346898;27;20427;-81
2024/01/06 12:32:28;;;;;;;2.47;1.85;;;;;;;;;;5346221;27;20038;-81
2024/01/06 12:34:59;;;;;;;5.60;2.92;;;;;;;;;;5346843;27;20027;-82
2024/01/06 12:37:30;;;;;;;3.90;2.35;;;;;;;;;;5346551;27;20011;-82
2024/01/06 12:40:02;;;;;;;3.80;2.38;;;;;;;;;;5345879;27;20027;-82
2024/01/06 12:42:33;;;;;;;3.15;2.35;;;;;;;;;;5346885;27;20015;-83
2024/01/06 12:45:05;;;;;;;4.97;2.28;;;;;;;;;;5346212;27;20023;-83
2024/01/06 12:47:36;;;;;;;3.58;2.78;;;;;;;;;;5346180;27;20018;-83
2024/01/06 12:50:08;;;;;;;3.28;2.45;;;;;;;;;;5346137;27;20043;-82
2024/01/06 12:52:39;;;;;;;6.38;3.25;;;;;;;;;;5345633;27;20076;-83
2024/01/06 12:55:10;;;;;;;4.53;3.00;;;;;;;;;;5346751;27;20019;-82
2024/01/06 12:57:42;;;;;;;4.65;2.85;;;;;;;;;;5346431;27;20027;-83
2024/01/06 13:00:13;;;;;;;5.10;2.88;;;;;;;;;;5345772;27;20027;-82
2024/01/06 13:02:44;;;;;;;4.47;2.58;;;;;;;;;;5346332;27;20016;-83
2024/01/06 13:05:16;;;;;;;4.20;2.58;;;;;;;;;;5346011;27;20035;-83
2024/01/06 13:07:47;;;;;;;3.65;2.72;;;;;;;;;;5345805;27;20046;-83
2024/01/06 13:10:18;;;;;;;4.18;2.67;;;;;;;;;;5346099;27;20027;-82
2024/01/06 13:12:50;;;;;;;3.58;2.45;;;;;;;;;;5346226;27;20094;-82
2024/01/06 13:15:21;;;;;;;3.15;2.33;;;;;;;;;;5345207;27;20053;-82
2024/01/06 13:17:52;;;;;;;3.70;2.65;;;;;;;;;;5346089;27;20566;-83
2024/01/06 13:20:23;;;;;;;2.83;2.35;;;;;;;;;;5345249;27;20462;-84
2024/01/06 13:22:55;;;;;;;4.25;2.22;;;;;;;;;;5346237;27;20015;-83
2024/01/06 13:25:27;;;;;;;2.65;1.63;;;;;;;;;;5345338;27;20030;-83
2024/01/06 13:27:59;;;;;;;2.70;1.55;;;;;;;;;;5344864;27;20061;-83
2024/01/06 13:30:31;;;;;;;2.88;1.70;;;;;;;;;;5345829;27;20058;-83
2024/01/06 13:33:02;;;;;;;2.60;1.48;;;;;;;;;;5345883;27;20021;-83
2024/01/06 13:35:33;;;;;;;2.67;1.42;;;;;;;;;;5345079;27;20027;-82
2024/01/06 13:38:05;;;;;;;2.55;1.48;;;;;;;;;;5345894;27;20090;-83
2024/01/06 13:40:37;;;;;;;3.40;1.52;;;;;;;;;;5345412;27;20011;-83
2024/01/06 13:43:15;;;;;;;3.28;1.75;;;;;;;;;;5345480;27;20034;-82
2024/01/06 13:45:47;;;;;;;3.92;1.92;;;;;;;;;;5354692;27;20041;-82
2024/01/06 13:48:19;;;;;;;4.03;2.30;;;;;;;;;;5350743;28;20466;-82
2024/01/06 13:50:50;;;;;;;4.20;1.95;;;;;;;;;;5344646;28;20059;-82
2024/01/06 13:53:21;;;;;;;2.60;2.30;;;;;;;;;;5345079;28;20110;-83
2024/01/06 13:55:52;;;;;;;6.00;4.00;;;;;;;;;;5345428;28;20035;-83
2024/01/06 13:58:24;;;;;;;9.25;6.50;;;;;;;;;;5345197;28;20058;-83
2024/01/06 14:00:55;;;;;;;11.30;7.07;;;;;;;;;;5345966;28;20024;-83
2024/01/06 14:03:26;;;;;;;4.65;3.97;;;;;;;;;;5344216;28;20403;-83
2024/01/06 14:05:57;;;;;;;5.97;4.95;;;;;;;;;;5345499;28;20019;-83
2024/01/06 14:08:28;;;;;;;8.50;6.53;;;;;;;;;;5345502;28;20023;-83
2024/01/06 14:10:59;;;;;;;4.90;4.07;;;;;;;;;;5344407;28;20035;-83
2024/01/06 14:13:31;;;;;;;3.88;3.00;;;;;;;;;;5345330;28;20015;-81
2024/01/06 14:16:02;;;;;;;3.60;2.30;;;;;;;;;;5345375;28;20386;-83
2024/01/06 14:18:33;;;;;;;3.97;2.38;;;;;;;;;;5344631;28;20019;-82
2024/01/06 14:21:05;;;;;;;2.75;2.15;;;;;;;;;;5345524;28;20031;-82
2024/01/06 14:23:38;;;;;;;3.70;2.22;;;;;;;;;;5344565;28;20030;-82
2024/01/06 14:26:10;;;;;;;4.68;2.60;;;;;;;;;;5345427;28;20424;-83
2024/01/06 14:28:41;;;;;;;3.67;2.50;;;;;;;;;;5345562;28;20015;-82
2024/01/06 14:31:12;;;;;;;4.00;2.80;;;;;;;;;;5344517;28;20023;-82
2024/01/06 14:33:43;;;;;;;2.88;1.98;;;;;;;;;;5345181;28;20115;-82
2024/01/06 14:36:15;;;;;;;4.57;2.78;;;;;;;;;;5345294;27;20038;-82
2024/01/06 14:38:46;;;;;;;4.43;2.03;;;;;;;;;;5348470;27;20015;-82
2024/01/06 14:41:17;;;;;;;3.26;1.90;;;;;;;;;;5349428;27;20106;-82
2024/01/06 14:43:48;;;;;;;2.95;2.47;;;;;;;;;;5349211;27;20064;-82
2024/01/06 14:46:19;;;;;;;3.78;2.65;;;;;;;;;;5348429;27;20098;-82
2024/01/06 14:48:51;;;;;;;2.97;2.03;;;;;;;;;;5349391;27;20382;-82
2024/01/06 14:51:22;;;;;;;3.17;1.90;;;;;;;;;;5348569;27;20047;-82
2024/01/06 14:53:55;;;;;;;5.38;2.13;;;;;;;;;;5349096;27;20086;-83
2024/01/06 14:56:26;;;;;;;4.60;2.72;;;;;;;;;;5348915;27;20427;-82
2024/01/06 14:58:57;;;;;;;3.70;3.25;;;;;;;;;;5348525;27;20023;-82
2024/01/06 15:01:29;;;;;;;4.70;2.28;;;;;;;;;;5349007;27;20079;-82
2024/01/06 15:04:00;;;;;;;4.16;2.60;;;;;;;;;;5348986;27;20072;-82
2024/01/06 15:06:31;;;;;;;3.30;2.53;;;;;;;;;;5348245;27;20035;-82